createdAt,value
2018-05-06T00:00:15.146Z,0.00
2018-05-06T00:01:15.066Z,0.00
2018-05-06T00:02:15.000Z,0.00
2018-05-06T00:03:14.916Z,0.00
2018-05-06T00:04:14.849Z,0.00
2018-05-06T00:05:14.774Z,0.00
2018-05-06T00:06:14.705Z,0.00
2018-05-06T00:07:14.619Z,0.00
2018-05-06T00:08:14.559Z,0.00
2018-05-06T00:09:14.484Z,0.00
2018-05-06T00:10:14.413Z,0.00
2018-05-06T00:11:14.329Z,0.00
2018-05-06T00:12:14.257Z,0.00
2018-05-06T00:13:14.182Z,0.00
2018-05-06T00:14:14.111Z,0.00
2018-05-06T00:15:14.038Z,0.00
2018-05-06T00:16:13.957Z,0.00
2018-05-06T00:17:13.881Z,0.00
2018-05-06T00:18:13.813Z,0.00
2018-05-06T00:19:13.731Z,0.00
2018-05-06T00:20:14.668Z,0.00
2018-05-06T00:21:13.583Z,0.00
2018-05-06T00:22:13.514Z,0.00
2018-05-06T00:23:13.440Z,0.00
2018-05-06T00:24:13.364Z,0.00
2018-05-06T00:25:13.284Z,0.00
2018-05-06T00:26:13.220Z,0.00
2018-05-06T00:27:13.138Z,0.00
2018-05-06T00:28:13.073Z,0.00
2018-05-06T00:29:12.989Z,0.00
2018-05-06T00:30:12.921Z,0.00
2018-05-06T00:31:12.840Z,0.00
2018-05-06T00:32:12.777Z,0.00
2018-05-06T00:33:12.687Z,0.00
2018-05-06T00:34:12.623Z,0.00
2018-05-06T00:35:12.542Z,0.00
2018-05-06T00:36:12.476Z,0.00
2018-05-06T00:37:12.395Z,0.00
2018-05-06T00:38:12.320Z,0.00
2018-05-06T00:39:12.245Z,0.00
2018-05-06T00:40:12.178Z,0.00
2018-05-06T00:41:12.096Z,0.00
2018-05-06T00:42:12.030Z,0.00
2018-05-06T00:43:11.947Z,0.00
2018-05-06T00:44:11.881Z,0.00
2018-05-06T00:45:11.797Z,0.00
2018-05-06T00:46:11.728Z,0.00
2018-05-06T00:47:11.647Z,0.00
2018-05-06T00:48:11.586Z,0.00
2018-05-06T00:49:11.502Z,0.00
2018-05-06T00:50:11.430Z,0.00
2018-05-06T00:51:11.349Z,0.00
2018-05-06T00:52:11.282Z,0.00
2018-05-06T00:53:11.204Z,0.00
2018-05-06T00:54:11.135Z,0.00
2018-05-06T00:55:11.048Z,0.00
2018-05-06T00:56:10.985Z,0.00
2018-05-06T00:57:10.903Z,0.00
2018-05-06T00:58:10.836Z,0.00
2018-05-06T00:59:10.753Z,0.00
2018-05-06T01:00:10.685Z,0.00
2018-05-06T01:01:10.609Z,0.00
2018-05-06T01:02:10.535Z,0.00
2018-05-06T01:03:10.454Z,0.00
2018-05-06T01:04:10.385Z,0.00
2018-05-06T01:05:10.303Z,0.00
2018-05-06T01:06:10.235Z,0.00
2018-05-06T01:07:10.154Z,0.00
2018-05-06T01:08:10.091Z,0.00
2018-05-06T01:09:10.004Z,0.00
2018-05-06T01:10:09.938Z,0.00
2018-05-06T01:11:09.857Z,0.00
2018-05-06T01:12:09.786Z,0.00
2018-05-06T01:13:09.704Z,0.00
2018-05-06T01:14:09.641Z,0.00
2018-05-06T01:15:09.554Z,0.00
2018-05-06T01:16:09.490Z,0.00
2018-05-06T01:17:09.405Z,0.00
2018-05-06T01:18:09.340Z,0.00
2018-05-06T01:19:09.252Z,0.00
2018-05-06T01:20:09.189Z,0.00
2018-05-06T01:21:09.105Z,0.00
2018-05-06T01:22:09.040Z,0.00
2018-05-06T01:23:08.962Z,0.00
2018-05-06T01:24:08.889Z,0.00
2018-05-06T01:25:08.810Z,0.00
2018-05-06T01:26:08.736Z,0.00
2018-05-06T01:27:08.656Z,0.00
2018-05-06T01:28:08.590Z,0.00
2018-05-06T01:29:08.511Z,0.00
2018-05-06T01:30:08.442Z,0.00
2018-05-06T01:31:08.357Z,0.00
2018-05-06T01:32:08.290Z,0.00
2018-05-06T01:33:08.208Z,0.00
2018-05-06T01:34:08.134Z,0.00
2018-05-06T01:35:08.054Z,0.00
2018-05-06T01:36:07.988Z,0.00
2018-05-06T01:37:07.906Z,0.00
2018-05-06T01:38:07.837Z,0.00
2018-05-06T01:39:07.754Z,0.00
2018-05-06T01:40:07.691Z,0.00
2018-05-06T01:41:07.605Z,0.00
2018-05-06T01:42:07.536Z,0.00
2018-05-06T01:43:07.454Z,0.00
2018-05-06T01:44:07.393Z,0.00
2018-05-06T01:45:07.303Z,0.00
2018-05-06T01:46:07.233Z,0.00
2018-05-06T01:47:07.155Z,0.00
2018-05-06T01:48:07.088Z,0.00
2018-05-06T01:49:07.002Z,0.00
2018-05-06T01:50:06.932Z,0.00
2018-05-06T01:51:06.850Z,0.00
2018-05-06T01:52:06.781Z,0.00
2018-05-06T01:53:06.700Z,0.00
2018-05-06T01:54:06.630Z,0.00
2018-05-06T01:55:06.550Z,0.00
2018-05-06T01:56:06.479Z,0.00
2018-05-06T01:57:06.395Z,0.00
2018-05-06T01:58:06.332Z,0.00
2018-05-06T01:59:06.244Z,0.00
2018-05-06T02:00:06.180Z,0.00
2018-05-06T02:01:06.090Z,0.00
2018-05-06T02:02:06.025Z,0.00
2018-05-06T02:03:05.943Z,0.00
2018-05-06T02:04:05.879Z,0.00
2018-05-06T02:05:05.796Z,0.00
2018-05-06T02:06:05.722Z,0.00
2018-05-06T02:07:05.642Z,0.00
2018-05-06T02:08:05.573Z,0.00
2018-05-06T02:09:05.487Z,0.00
2018-05-06T02:10:05.425Z,0.00
2018-05-06T02:11:05.336Z,0.00
2018-05-06T02:12:05.271Z,0.00
2018-05-06T02:13:05.188Z,0.00
2018-05-06T02:14:05.121Z,0.00
2018-05-06T02:15:05.032Z,0.00
2018-05-06T02:16:04.966Z,0.00
2018-05-06T02:17:04.880Z,0.00
2018-05-06T02:18:04.816Z,0.00
2018-05-06T02:19:04.731Z,0.00
2018-05-06T02:20:04.661Z,0.00
2018-05-06T02:21:04.577Z,0.00
2018-05-06T02:22:04.508Z,0.00
2018-05-06T02:23:04.425Z,0.00
2018-05-06T02:24:04.364Z,0.00
2018-05-06T02:25:04.272Z,0.00
2018-05-06T02:26:04.207Z,0.00
2018-05-06T02:27:04.119Z,0.00
2018-05-06T02:28:04.052Z,0.00
2018-05-06T02:29:03.967Z,0.00
2018-05-06T02:30:03.900Z,0.00
2018-05-06T02:31:03.818Z,0.00
2018-05-06T02:32:03.746Z,0.00
2018-05-06T02:33:03.664Z,0.00
2018-05-06T02:34:03.600Z,0.00
2018-05-06T02:35:03.526Z,0.00
2018-05-06T02:36:03.445Z,0.00
2018-05-06T02:37:03.358Z,0.00
2018-05-06T02:38:03.292Z,0.00
2018-05-06T02:39:03.209Z,0.00
2018-05-06T02:40:03.150Z,0.00
2018-05-06T02:41:03.056Z,0.00
2018-05-06T02:42:02.994Z,0.00
2018-05-06T02:43:02.904Z,0.00
2018-05-06T02:44:02.833Z,0.00
2018-05-06T02:45:02.749Z,0.00
2018-05-06T02:46:02.690Z,0.00
2018-05-06T02:47:02.606Z,0.00
2018-05-06T02:48:02.532Z,0.00
2018-05-06T02:49:02.447Z,0.00
2018-05-06T02:50:02.376Z,0.00
2018-05-06T02:51:02.295Z,0.00
2018-05-06T02:52:02.227Z,0.00
2018-05-06T02:53:02.136Z,0.00
2018-05-06T02:54:02.069Z,0.00
2018-05-06T02:55:01.988Z,0.00
2018-05-06T02:56:01.918Z,0.00
2018-05-06T02:57:01.832Z,0.00
2018-05-06T02:58:01.763Z,0.00
2018-05-06T02:59:01.681Z,0.00
2018-05-06T03:00:01.610Z,0.00
2018-05-06T03:01:01.529Z,0.00
2018-05-06T03:02:01.456Z,0.00
2018-05-06T03:03:01.372Z,0.00
2018-05-06T03:04:01.306Z,0.00
2018-05-06T03:05:01.222Z,0.00
2018-05-06T03:06:01.150Z,0.00
2018-05-06T03:07:01.065Z,0.00
2018-05-06T03:08:01.000Z,0.00
2018-05-06T03:09:00.919Z,0.00
2018-05-06T03:10:00.849Z,0.00
2018-05-06T03:11:00.760Z,0.00
2018-05-06T03:12:00.691Z,0.00
2018-05-06T03:13:00.608Z,0.00
2018-05-06T03:14:00.547Z,0.00
2018-05-06T03:15:00.456Z,0.00
2018-05-06T03:16:00.392Z,0.00
2018-05-06T03:17:00.302Z,0.00
2018-05-06T03:18:00.235Z,0.00
2018-05-06T03:19:00.151Z,0.00
2018-05-06T03:20:00.081Z,0.00
2018-05-06T03:20:59.997Z,0.00
2018-05-06T03:21:59.927Z,0.00
2018-05-06T03:22:59.850Z,0.00
2018-05-06T03:23:59.775Z,0.00
2018-05-06T03:24:59.690Z,0.00
2018-05-06T03:25:59.621Z,4.00
2018-05-06T03:26:59.536Z,0.00
2018-05-06T03:27:59.476Z,0.00
2018-05-06T03:28:59.380Z,0.00
2018-05-06T03:29:59.322Z,4.00
2018-05-06T03:30:59.240Z,0.00
2018-05-06T03:31:59.159Z,4.00
2018-05-06T03:32:59.076Z,0.00
2018-05-06T03:33:59.005Z,4.00
2018-05-06T03:34:58.924Z,0.00
2018-05-06T03:35:58.859Z,4.00
2018-05-06T03:36:58.768Z,4.00
2018-05-06T03:37:58.702Z,4.00
2018-05-06T03:38:58.623Z,8.00
2018-05-06T03:39:58.546Z,8.00
2018-05-06T03:40:58.463Z,8.00
2018-05-06T03:41:58.479Z,8.00
2018-05-06T03:42:58.307Z,8.00
2018-05-06T03:43:58.286Z,8.00
2018-05-06T03:44:58.157Z,8.00
2018-05-06T03:45:58.097Z,8.00
2018-05-06T03:46:58.000Z,12.00
2018-05-06T03:47:58.004Z,12.00
2018-05-06T03:48:57.852Z,12.00
2018-05-06T03:49:57.805Z,16.00
2018-05-06T03:50:57.689Z,16.00
2018-05-06T03:51:57.725Z,20.00
2018-05-06T03:52:57.544Z,24.00
2018-05-06T03:53:57.556Z,20.00
2018-05-06T03:54:57.388Z,24.00
2018-05-06T03:55:57.316Z,28.00
2018-05-06T03:56:57.240Z,24.00
2018-05-06T03:57:57.165Z,28.00
2018-05-06T03:58:57.076Z,32.00
2018-05-06T03:59:57.015Z,32.00
2018-05-06T04:00:56.933Z,36.00
2018-05-06T04:01:56.857Z,40.00
2018-05-06T04:02:56.770Z,40.00
2018-05-06T04:03:56.700Z,44.00
2018-05-06T04:04:56.619Z,44.00
2018-05-06T04:05:56.584Z,44.00
2018-05-06T04:06:56.463Z,44.00
2018-05-06T04:07:56.494Z,48.00
2018-05-06T04:08:56.308Z,48.00
2018-05-06T04:09:56.304Z,52.00
2018-05-06T04:10:56.156Z,56.00
2018-05-06T04:11:56.151Z,56.00
2018-05-06T04:12:55.999Z,60.00
2018-05-06T04:13:55.933Z,60.00
2018-05-06T04:14:55.847Z,64.00
2018-05-06T04:15:55.832Z,68.00
2018-05-06T04:16:55.695Z,68.00
2018-05-06T04:17:55.639Z,72.00
2018-05-06T04:18:55.541Z,72.00
2018-05-06T04:19:55.555Z,76.00
2018-05-06T04:20:55.385Z,80.00
2018-05-06T04:21:55.358Z,80.00
2018-05-06T04:22:55.232Z,80.00
2018-05-06T04:23:55.269Z,84.00
2018-05-06T04:24:55.075Z,84.00
2018-05-06T04:25:55.012Z,88.00
2018-05-06T04:26:54.965Z,92.00
2018-05-06T04:27:54.888Z,92.00
2018-05-06T04:28:54.770Z,96.00
2018-05-06T04:29:54.701Z,96.00
2018-05-06T04:30:54.617Z,96.00
2018-05-06T04:31:54.605Z,100.00
2018-05-06T04:32:54.458Z,100.00
2018-05-06T04:33:54.417Z,108.00
2018-05-06T04:34:54.309Z,108.00
2018-05-06T04:35:54.321Z,108.00
2018-05-06T04:36:54.155Z,108.00
2018-05-06T04:37:54.082Z,112.00
2018-05-06T04:38:54.003Z,116.00
2018-05-06T04:39:54.929Z,120.00
2018-05-06T04:40:53.843Z,120.00
2018-05-06T04:41:53.778Z,124.00
2018-05-06T04:42:53.688Z,124.00
2018-05-06T04:43:53.661Z,124.00
2018-05-06T04:44:53.533Z,128.00
2018-05-06T04:45:53.572Z,128.00
2018-05-06T04:46:53.387Z,132.00
2018-05-06T04:47:53.312Z,136.00
2018-05-06T04:48:53.234Z,136.00
2018-05-06T04:49:53.188Z,140.00
2018-05-06T04:50:53.072Z,140.00
2018-05-06T04:51:53.099Z,140.00
2018-05-06T04:52:52.923Z,144.00
2018-05-06T04:53:52.914Z,144.00
2018-05-06T04:54:52.766Z,152.00
2018-05-06T04:55:52.716Z,152.00
2018-05-06T04:56:52.615Z,152.00
2018-05-06T04:57:52.629Z,156.00
2018-05-06T04:58:52.459Z,156.00
2018-05-06T04:59:52.436Z,160.00
2018-05-06T05:00:52.306Z,168.00
2018-05-06T05:01:52.346Z,168.00
2018-05-06T05:02:52.154Z,168.00
2018-05-06T05:03:52.156Z,168.00
2018-05-06T05:04:52.004Z,168.00
2018-05-06T05:05:51.927Z,168.00
2018-05-06T05:06:51.850Z,168.00
2018-05-06T05:07:51.774Z,176.00
2018-05-06T05:08:51.692Z,176.00
2018-05-06T05:09:51.684Z,180.00
2018-05-06T05:10:51.537Z,180.00
2018-05-06T05:11:51.466Z,184.00
2018-05-06T05:12:51.381Z,184.00
2018-05-06T05:13:51.406Z,188.00
2018-05-06T05:14:51.231Z,188.00
2018-05-06T05:15:51.211Z,192.00
2018-05-06T05:16:51.077Z,196.00
2018-05-06T05:17:51.020Z,196.00
2018-05-06T05:18:50.930Z,196.00
2018-05-06T05:19:50.930Z,200.00
2018-05-06T05:20:50.860Z,200.00
2018-05-06T05:21:50.703Z,204.00
2018-05-06T05:22:50.617Z,204.00
2018-05-06T05:23:50.651Z,204.00
2018-05-06T05:24:50.463Z,208.00
2018-05-06T05:25:50.395Z,208.00
2018-05-06T05:26:50.308Z,212.00
2018-05-06T05:27:50.241Z,216.00
2018-05-06T05:28:50.164Z,216.00
2018-05-06T05:29:50.086Z,220.00
2018-05-06T05:30:50.000Z,228.00
2018-05-06T05:31:49.987Z,232.00
2018-05-06T05:32:49.848Z,236.00
2018-05-06T05:33:49.793Z,240.00
2018-05-06T05:34:49.698Z,248.00
2018-05-06T05:35:49.621Z,256.00
2018-05-06T05:36:49.545Z,256.00
2018-05-06T05:37:49.889Z,264.00
2018-05-06T05:38:49.393Z,268.00
2018-05-06T05:39:49.320Z,268.00
2018-05-06T05:40:49.240Z,276.00
2018-05-06T05:41:49.165Z,276.00
2018-05-06T05:42:49.086Z,276.00
2018-05-06T05:43:49.017Z,276.00
2018-05-06T05:44:48.937Z,276.00
2018-05-06T05:45:48.867Z,276.00
2018-05-06T05:46:48.783Z,276.00
2018-05-06T05:47:48.828Z,276.00
2018-05-06T05:48:48.632Z,276.00
2018-05-06T05:49:48.568Z,280.00
2018-05-06T05:50:48.476Z,284.00
2018-05-06T05:51:48.481Z,284.00
2018-05-06T05:52:48.324Z,284.00
2018-05-06T05:53:48.288Z,288.00
2018-05-06T05:54:48.164Z,288.00
2018-05-06T05:55:48.199Z,288.00
2018-05-06T05:56:48.018Z,288.00
2018-05-06T05:57:48.011Z,288.00
2018-05-06T05:58:47.866Z,288.00
2018-05-06T05:59:47.817Z,288.00
2018-05-06T06:00:47.714Z,292.00
2018-05-06T06:01:47.729Z,292.00
2018-05-06T06:02:47.564Z,296.00
2018-05-06T06:03:47.537Z,300.00
2018-05-06T06:04:47.409Z,304.00
2018-05-06T06:05:47.446Z,304.00
2018-05-06T06:06:47.258Z,304.00
2018-05-06T06:07:47.254Z,308.00
2018-05-06T06:08:47.104Z,312.00
2018-05-06T06:09:47.130Z,312.00
2018-05-06T06:10:46.958Z,316.00
2018-05-06T06:11:46.987Z,320.00
2018-05-06T06:12:46.803Z,320.00
2018-05-06T06:13:46.784Z,320.00
2018-05-06T06:14:46.648Z,324.00
2018-05-06T06:15:46.593Z,324.00
2018-05-06T06:16:46.503Z,328.00
2018-05-06T06:17:46.504Z,328.00
2018-05-06T06:18:46.352Z,328.00
2018-05-06T06:19:46.313Z,332.00
2018-05-06T06:20:46.193Z,332.00
2018-05-06T06:21:46.223Z,336.00
2018-05-06T06:22:46.044Z,336.00
2018-05-06T06:23:46.039Z,340.00
2018-05-06T06:24:45.895Z,348.00
2018-05-06T06:25:45.842Z,348.00
2018-05-06T06:26:45.740Z,348.00
2018-05-06T06:27:45.667Z,356.00
2018-05-06T06:28:45.589Z,356.00
2018-05-06T06:29:45.558Z,360.00
2018-05-06T06:30:45.434Z,360.00
2018-05-06T06:31:45.472Z,364.00
2018-05-06T06:32:45.283Z,368.00
2018-05-06T06:33:45.279Z,372.00
2018-05-06T06:34:45.131Z,376.00
2018-05-06T06:35:45.142Z,380.00
2018-05-06T06:36:44.986Z,380.00
2018-05-06T06:37:44.997Z,384.00
2018-05-06T06:38:44.834Z,388.00
2018-05-06T06:39:44.805Z,392.00
2018-05-06T06:40:44.703Z,396.00
2018-05-06T06:41:44.718Z,400.00
2018-05-06T06:42:44.531Z,408.00
2018-05-06T06:43:44.525Z,416.00
2018-05-06T06:44:44.383Z,424.00
2018-05-06T06:45:44.334Z,428.00
2018-05-06T06:46:44.225Z,432.00
2018-05-06T06:47:44.244Z,440.00
2018-05-06T06:48:44.077Z,444.00
2018-05-06T06:49:44.052Z,452.00
2018-05-06T06:50:43.932Z,464.00
2018-05-06T06:51:43.962Z,468.00
2018-05-06T06:52:43.783Z,480.00
2018-05-06T06:53:43.776Z,488.00
2018-05-06T06:54:43.626Z,496.00
2018-05-06T06:55:43.591Z,504.00
2018-05-06T06:56:43.475Z,512.00
2018-05-06T06:57:43.405Z,528.00
2018-05-06T06:58:43.328Z,548.00
2018-05-06T06:59:43.302Z,564.00
2018-05-06T07:00:43.177Z,580.00
2018-05-06T07:01:43.215Z,600.00
2018-05-06T07:02:43.026Z,624.00
2018-05-06T07:03:43.016Z,652.00
2018-05-06T07:04:42.888Z,684.00
2018-05-06T07:05:42.839Z,704.00
2018-05-06T07:06:42.741Z,724.00
2018-05-06T07:07:42.740Z,748.00
2018-05-06T07:08:42.576Z,768.00
2018-05-06T07:09:42.547Z,792.00
2018-05-06T07:10:42.424Z,816.00
2018-05-06T07:11:42.458Z,848.00
2018-05-06T07:12:42.277Z,888.00
2018-05-06T07:13:42.210Z,924.00
2018-05-06T07:14:42.131Z,956.00
2018-05-06T07:15:42.077Z,984.00
2018-05-06T07:16:41.981Z,1012.00
2018-05-06T07:17:41.912Z,1028.00
2018-05-06T07:18:41.827Z,1044.00
2018-05-06T07:19:41.795Z,1084.00
2018-05-06T07:20:41.681Z,1132.00
2018-05-06T07:21:41.616Z,1188.00
2018-05-06T07:22:41.532Z,1240.00
2018-05-06T07:23:41.515Z,1300.00
2018-05-06T07:24:41.388Z,1360.00
2018-05-06T07:25:41.431Z,1420.00
2018-05-06T07:26:41.241Z,1476.00
2018-05-06T07:27:41.163Z,1524.00
2018-05-06T07:28:41.137Z,1576.00
2018-05-06T07:29:41.017Z,1624.00
2018-05-06T07:30:41.047Z,1684.00
2018-05-06T07:31:40.867Z,1732.00
2018-05-06T07:32:40.857Z,1780.00
2018-05-06T07:33:40.722Z,1824.00
2018-05-06T07:34:40.670Z,1872.00
2018-05-06T07:35:40.576Z,1916.00
2018-05-06T07:36:40.577Z,1956.00
2018-05-06T07:37:40.424Z,2000.00
2018-05-06T07:38:40.384Z,2040.00
2018-05-06T07:39:40.283Z,2072.00
2018-05-06T07:40:40.295Z,2116.00
2018-05-06T07:41:40.137Z,2148.00
2018-05-06T07:42:40.108Z,2188.00
2018-05-06T07:43:39.981Z,2220.00
2018-05-06T07:44:40.017Z,2236.00
2018-05-06T07:45:39.836Z,2268.00
2018-05-06T07:46:39.827Z,2292.00
2018-05-06T07:47:39.693Z,2328.00
2018-05-06T07:48:39.731Z,2356.00
2018-05-06T07:49:39.549Z,2372.00
2018-05-06T07:50:39.546Z,2396.00
2018-05-06T07:51:39.403Z,2404.00
2018-05-06T07:52:39.353Z,2440.00
2018-05-06T07:53:39.258Z,2412.00
2018-05-06T07:54:39.269Z,2516.00
2018-05-06T07:55:39.117Z,2524.00
2018-05-06T07:56:39.072Z,2680.00
2018-05-06T07:57:38.973Z,2668.00
2018-05-06T07:58:38.982Z,2660.00
2018-05-06T07:59:38.823Z,2664.00
2018-05-06T08:00:38.795Z,2668.00
2018-05-06T08:01:38.683Z,2664.00
2018-05-06T08:02:38.702Z,2676.00
2018-05-06T08:03:38.539Z,2692.00
2018-05-06T08:04:38.515Z,2716.00
2018-05-06T08:05:38.393Z,2708.00
2018-05-06T08:06:38.425Z,2720.00
2018-05-06T08:07:38.257Z,2732.00
2018-05-06T08:08:38.227Z,2732.00
2018-05-06T08:09:38.108Z,2736.00
2018-05-06T08:10:38.042Z,2744.00
2018-05-06T08:11:37.965Z,2752.00
2018-05-06T08:12:37.900Z,2764.00
2018-05-06T08:13:37.827Z,2764.00
2018-05-06T08:14:37.860Z,2784.00
2018-05-06T08:15:37.687Z,2780.00
2018-05-06T08:16:37.737Z,2792.00
2018-05-06T08:17:37.544Z,2804.00
2018-05-06T08:18:37.581Z,2820.00
2018-05-06T08:19:37.398Z,2820.00
2018-05-06T08:20:37.385Z,2828.00
2018-05-06T08:21:37.260Z,2836.00
2018-05-06T08:22:37.301Z,2844.00
2018-05-06T08:23:37.117Z,2840.00
2018-05-06T08:24:37.110Z,2856.00
2018-05-06T08:25:36.977Z,2864.00
2018-05-06T08:26:37.025Z,2868.00
2018-05-06T08:27:36.834Z,2876.00
2018-05-06T08:28:36.771Z,2880.00
2018-05-06T08:29:36.696Z,2888.00
2018-05-06T08:30:36.741Z,2896.00
2018-05-06T08:31:36.550Z,2900.00
2018-05-06T08:32:36.549Z,2900.00
2018-05-06T08:33:36.409Z,2900.00
2018-05-06T08:34:36.460Z,2904.00
2018-05-06T08:35:36.276Z,2912.00
2018-05-06T08:36:36.268Z,2920.00
2018-05-06T08:37:36.138Z,2932.00
2018-05-06T08:38:36.181Z,2932.00
2018-05-06T08:39:35.994Z,2956.00
2018-05-06T08:40:35.997Z,2956.00
2018-05-06T08:41:35.852Z,2956.00
2018-05-06T08:42:35.900Z,2964.00
2018-05-06T08:43:35.720Z,2956.00
2018-05-06T08:44:35.716Z,2952.00
2018-05-06T08:45:35.579Z,2960.00
2018-05-06T08:46:35.619Z,2960.00
2018-05-06T08:47:35.437Z,2964.00
2018-05-06T08:48:35.427Z,2968.00
2018-05-06T08:49:35.296Z,2956.00
2018-05-06T08:50:35.336Z,2960.00
2018-05-06T08:51:35.201Z,2960.00
2018-05-06T08:52:35.147Z,2968.00
2018-05-06T08:53:35.024Z,2976.00
2018-05-06T08:54:35.055Z,2964.00
2018-05-06T08:55:34.888Z,2956.00
2018-05-06T08:56:34.869Z,2956.00
2018-05-06T08:57:34.744Z,2956.00
2018-05-06T08:58:34.781Z,2948.00
2018-05-06T08:59:34.670Z,2944.00
2018-05-06T09:00:34.584Z,2944.00
2018-05-06T09:01:34.471Z,2908.00
2018-05-06T09:02:34.499Z,2896.00
2018-05-06T09:03:34.334Z,2780.00
2018-05-06T09:04:34.305Z,2892.00
2018-05-06T09:05:34.199Z,2880.00
2018-05-06T09:06:34.216Z,2884.00
2018-05-06T09:07:34.062Z,2884.00
2018-05-06T09:08:34.028Z,2872.00
2018-05-06T09:09:33.923Z,2872.00
2018-05-06T09:10:33.934Z,2868.00
2018-05-06T09:11:33.804Z,2868.00
2018-05-06T09:12:33.767Z,2872.00
2018-05-06T09:13:33.663Z,2872.00
2018-05-06T09:14:33.655Z,2864.00
2018-05-06T09:15:33.516Z,2876.00
2018-05-06T09:16:33.459Z,2860.00
2018-05-06T09:17:33.384Z,2868.00
2018-05-06T09:18:33.388Z,2864.00
2018-05-06T09:19:33.266Z,2848.00
2018-05-06T09:20:33.284Z,2848.00
2018-05-06T09:21:33.108Z,2840.00
2018-05-06T09:22:33.094Z,2840.00
2018-05-06T09:23:32.975Z,2840.00
2018-05-06T09:24:33.002Z,2840.00
2018-05-06T09:25:32.942Z,2828.00
2018-05-06T09:26:32.816Z,2824.00
2018-05-06T09:27:32.704Z,2824.00
2018-05-06T09:28:32.722Z,2824.00
2018-05-06T09:29:32.572Z,2816.00
2018-05-06T09:30:32.533Z,2816.00
2018-05-06T09:31:32.433Z,2776.00
2018-05-06T09:32:32.446Z,2788.00
2018-05-06T09:33:32.298Z,2784.00
2018-05-06T09:34:32.253Z,2780.00
2018-05-06T09:35:32.172Z,2684.00
2018-05-06T09:36:32.164Z,2788.00
2018-05-06T09:37:32.028Z,2788.00
2018-05-06T09:38:32.083Z,2796.00
2018-05-06T09:39:31.894Z,2784.00
2018-05-06T09:40:31.883Z,2780.00
2018-05-06T09:41:31.762Z,2752.00
2018-05-06T09:42:31.796Z,2756.00
2018-05-06T09:43:31.627Z,2744.00
2018-05-06T09:44:31.602Z,2744.00
2018-05-06T09:45:31.492Z,2728.00
2018-05-06T09:46:31.512Z,2732.00
2018-05-06T09:47:31.442Z,2736.00
2018-05-06T09:48:31.323Z,2732.00
2018-05-06T09:49:31.227Z,2712.00
2018-05-06T09:50:31.234Z,2728.00
2018-05-06T09:51:31.097Z,2704.00
2018-05-06T09:52:31.090Z,2704.00
2018-05-06T09:53:30.956Z,2704.00
2018-05-06T09:54:30.957Z,2696.00
2018-05-06T09:55:30.821Z,2696.00
2018-05-06T09:56:30.865Z,2688.00
2018-05-06T09:57:30.689Z,2676.00
2018-05-06T09:58:36.310Z,2672.00
2018-05-06T09:59:30.553Z,2664.00
2018-05-06T10:00:30.590Z,2668.00
2018-05-06T10:01:30.423Z,2648.00
2018-05-06T10:02:35.314Z,2644.00
2018-05-06T10:03:30.287Z,2636.00
2018-05-06T10:04:32.257Z,2664.00
2018-05-06T10:05:30.155Z,2668.00
2018-05-06T10:06:31.140Z,2660.00
2018-05-06T10:07:30.025Z,2640.00
2018-05-06T10:08:30.035Z,2620.00
2018-05-06T10:09:29.894Z,2624.00
2018-05-06T10:10:29.939Z,2624.00
2018-05-06T10:11:29.756Z,2612.00
2018-05-06T10:12:29.744Z,2616.00
2018-05-06T10:13:29.622Z,2600.00
2018-05-06T10:14:29.659Z,2564.00
2018-05-06T10:15:31.485Z,2572.00
2018-05-06T10:16:29.571Z,2572.00
2018-05-06T10:17:29.366Z,2564.00
2018-05-06T10:18:29.480Z,2556.00
2018-05-06T10:19:29.227Z,2560.00
2018-05-06T10:20:29.184Z,2540.00
2018-05-06T10:21:29.099Z,2548.00
2018-05-06T10:22:29.099Z,2544.00
2018-05-06T10:23:28.970Z,2532.00
2018-05-06T10:24:29.930Z,2524.00
2018-05-06T10:25:28.832Z,2520.00
2018-05-06T10:26:28.819Z,2508.00
2018-05-06T10:27:28.693Z,2500.00
2018-05-06T10:28:28.723Z,2508.00
2018-05-06T10:29:28.567Z,2504.00
2018-05-06T10:30:28.533Z,2484.00
2018-05-06T10:31:28.435Z,2476.00
2018-05-06T10:32:28.446Z,2472.00
2018-05-06T10:33:28.312Z,2468.00
2018-05-06T10:34:28.252Z,2452.00
2018-05-06T10:35:28.170Z,2448.00
2018-05-06T10:36:28.103Z,2444.00
2018-05-06T10:37:28.177Z,2444.00
2018-05-06T10:38:28.029Z,2436.00
2018-05-06T10:39:28.089Z,2428.00
2018-05-06T10:40:27.844Z,2420.00
2018-05-06T10:41:27.889Z,2416.00
2018-05-06T10:42:27.791Z,2404.00
2018-05-06T10:43:27.699Z,2404.00
2018-05-06T10:44:27.670Z,2388.00
2018-05-06T10:45:27.605Z,2392.00
2018-05-06T10:46:27.445Z,2380.00
2018-05-06T10:47:27.418Z,2360.00
2018-05-06T10:48:27.315Z,2340.00
2018-05-06T10:49:27.327Z,2348.00
2018-05-06T10:50:27.195Z,2348.00
2018-05-06T10:51:27.144Z,2332.00
2018-05-06T10:52:27.052Z,2324.00
2018-05-06T10:53:27.050Z,2312.00
2018-05-06T10:54:26.918Z,2300.00
2018-05-06T10:55:26.959Z,2284.00
2018-05-06T10:56:26.785Z,2280.00
2018-05-06T10:57:26.773Z,2252.00
2018-05-06T10:58:26.652Z,2244.00
2018-05-06T10:59:26.677Z,2248.00
2018-05-06T11:00:26.522Z,2232.00
2018-05-06T11:01:26.485Z,2216.00
2018-05-06T11:02:26.389Z,2204.00
2018-05-06T11:03:26.398Z,2188.00
2018-05-06T11:04:26.256Z,2184.00
2018-05-06T11:05:26.312Z,2200.00
2018-05-06T11:06:26.125Z,2192.00
2018-05-06T11:07:26.117Z,2192.00
2018-05-06T11:08:25.999Z,2188.00
2018-05-06T11:09:26.024Z,2188.00
2018-05-06T11:10:26.008Z,2168.00
2018-05-06T11:11:25.837Z,2164.00
2018-05-06T11:12:25.731Z,2164.00
2018-05-06T11:13:25.750Z,2144.00
2018-05-06T11:14:25.607Z,2144.00
2018-05-06T11:15:25.560Z,2140.00
2018-05-06T11:16:25.473Z,2128.00
2018-05-06T11:17:25.473Z,2136.00
2018-05-06T11:18:25.346Z,2124.00
2018-05-06T11:19:25.380Z,2124.00
2018-05-06T11:20:25.210Z,2128.00
2018-05-06T11:21:25.185Z,2116.00
2018-05-06T11:22:25.077Z,2116.00
2018-05-06T11:23:25.101Z,2124.00
2018-05-06T11:24:24.948Z,2124.00
2018-05-06T11:25:24.907Z,2116.00
2018-05-06T11:26:24.826Z,2100.00
2018-05-06T11:27:24.821Z,2108.00
2018-05-06T11:28:24.685Z,2092.00
2018-05-06T11:29:24.729Z,2084.00
2018-05-06T11:30:24.556Z,2096.00
2018-05-06T11:31:24.538Z,2084.00
2018-05-06T11:32:24.428Z,2076.00
2018-05-06T11:33:24.503Z,2076.00
2018-05-06T11:34:24.296Z,2080.00
2018-05-06T11:35:24.254Z,2076.00
2018-05-06T11:36:24.166Z,2072.00
2018-05-06T11:37:24.167Z,2076.00
2018-05-06T11:38:24.034Z,2064.00
2018-05-06T11:39:23.980Z,2068.00
2018-05-06T11:40:23.906Z,2060.00
2018-05-06T11:41:23.848Z,2060.00
2018-05-06T11:42:23.776Z,2056.00
2018-05-06T11:43:23.798Z,2056.00
2018-05-06T11:44:23.644Z,2060.00
2018-05-06T11:45:23.615Z,2048.00
2018-05-06T11:46:23.515Z,2036.00
2018-05-06T11:47:23.519Z,2052.00
2018-05-06T11:48:23.379Z,2056.00
2018-05-06T11:49:23.436Z,2056.00
2018-05-06T11:50:23.277Z,2048.00
2018-05-06T11:51:23.250Z,2052.00
2018-05-06T11:52:23.154Z,2056.00
2018-05-06T11:53:23.147Z,2064.00
2018-05-06T11:54:22.993Z,2068.00
2018-05-06T11:55:22.955Z,2076.00
2018-05-06T11:56:22.881Z,2060.00
2018-05-06T11:57:22.869Z,2060.00
2018-05-06T11:58:22.738Z,2056.00
2018-05-06T11:59:22.779Z,2064.00
2018-05-06T12:00:22.608Z,2052.00
2018-05-06T12:01:22.587Z,2052.00
2018-05-06T12:02:22.542Z,2060.00
2018-05-06T12:03:22.503Z,2048.00
2018-05-06T12:04:22.365Z,2060.00
2018-05-06T12:05:22.312Z,2060.00
2018-05-06T12:06:22.223Z,2060.00
2018-05-06T12:07:22.222Z,2060.00
2018-05-06T12:08:22.089Z,2060.00
2018-05-06T12:09:22.130Z,2064.00
2018-05-06T12:10:21.965Z,2052.00
2018-05-06T12:11:21.935Z,2052.00
2018-05-06T12:12:21.831Z,2052.00
2018-05-06T12:13:21.849Z,2052.00
2018-05-06T12:14:21.702Z,2060.00
2018-05-06T12:15:21.658Z,2060.00
2018-05-06T12:16:21.573Z,2060.00
2018-05-06T12:17:21.567Z,2056.00
2018-05-06T12:18:21.445Z,2056.00
2018-05-06T12:19:21.481Z,2056.00
2018-05-06T12:20:21.316Z,2052.00
2018-05-06T12:21:21.288Z,2056.00
2018-05-06T12:22:21.185Z,2056.00
2018-05-06T12:23:21.197Z,2060.00
2018-05-06T12:24:21.059Z,2056.00
2018-05-06T12:25:21.110Z,2056.00
2018-05-06T12:26:20.927Z,2052.00
2018-05-06T12:27:20.920Z,2048.00
2018-05-06T12:28:20.796Z,2040.00
2018-05-06T12:29:20.833Z,2044.00
2018-05-06T12:30:20.670Z,2048.00
2018-05-06T12:31:20.637Z,2056.00
2018-05-06T12:32:20.543Z,2056.00
2018-05-06T12:33:20.554Z,2052.00